createdAt,value
2023-05-01T00:00:58.464Z,99361.00
2023-05-01T00:01:58.486Z,99356.00
2023-05-01T00:02:58.590Z,99356.00
2023-05-01T00:03:58.898Z,99351.00
2023-05-01T00:04:58.552Z,99353.00
2023-05-01T00:05:58.531Z,99355.00
2023-05-01T00:06:58.533Z,99354.00
2023-05-01T00:07:58.554Z,99348.00
2023-05-01T00:08:58.563Z,99351.00
2023-05-01T00:09:58.851Z,99347.00
2023-05-01T00:10:58.583Z,99346.00
2023-05-01T00:11:58.844Z,99348.00
2023-05-01T00:12:58.658Z,99344.00
2023-05-01T00:13:58.613Z,99344.00
2023-05-01T00:14:58.620Z,99341.00
2023-05-01T00:15:58.695Z,99340.00
2023-05-01T00:16:58.834Z,99341.00
2023-05-01T00:17:58.734Z,99336.00
2023-05-01T00:18:58.688Z,99334.00
2023-05-01T00:19:58.974Z,99340.00
2023-05-01T00:20:58.730Z,99334.00
2023-05-01T00:21:58.836Z,99336.00
2023-05-01T00:22:58.768Z,99332.00
2023-05-01T00:23:58.756Z,99332.00
2023-05-01T00:24:58.770Z,99337.00
2023-05-01T00:25:58.777Z,99333.00
2023-05-01T00:26:58.802Z,99331.00
2023-05-01T00:27:58.823Z,99330.00
2023-05-01T00:28:58.875Z,99331.00
2023-05-01T00:29:59.027Z,99331.00
2023-05-01T00:30:58.873Z,99331.00
2023-05-01T00:31:58.966Z,99329.00
2023-05-01T00:32:58.966Z,99328.00
2023-05-01T00:33:58.925Z,99328.00
2023-05-01T00:34:58.915Z,99328.00
2023-05-01T00:35:58.944Z,99326.00
2023-05-01T00:36:58.969Z,99318.00
2023-05-01T00:37:58.976Z,99317.00
2023-05-01T00:38:58.992Z,99321.00
2023-05-01T00:39:59.416Z,99317.00
2023-05-01T00:40:59.047Z,99318.00
2023-05-01T00:41:59.077Z,99315.00
2023-05-01T00:42:59.047Z,99314.00
2023-05-01T00:43:59.054Z,99316.00
2023-05-01T00:44:59.108Z,99315.00
2023-05-01T00:45:59.119Z,99316.00
2023-05-01T00:46:59.068Z,99312.00
2023-05-01T00:47:59.133Z,99312.00
2023-05-01T00:48:59.078Z,99312.00
2023-05-01T00:49:59.084Z,99309.00
2023-05-01T00:50:59.098Z,99308.00
2023-05-01T00:51:59.108Z,99308.00
2023-05-01T00:52:59.086Z,99305.00
2023-05-01T00:53:59.115Z,99309.00
2023-05-01T00:54:59.151Z,99307.00
2023-05-01T00:55:59.132Z,99300.00
2023-05-01T00:56:59.156Z,99306.00
2023-05-01T00:57:59.167Z,99302.00
2023-05-01T00:58:59.199Z,99296.00
2023-05-01T00:59:59.182Z,99301.00
2023-05-01T01:00:59.305Z,99299.00
2023-05-01T01:01:59.226Z,99300.00
2023-05-01T01:02:59.260Z,99298.00
2023-05-01T01:03:59.305Z,99298.00
2023-05-01T01:04:59.384Z,99296.00
2023-05-01T01:05:59.300Z,99293.00
2023-05-01T01:06:59.287Z,99295.00
2023-05-01T01:07:59.317Z,99293.00
2023-05-01T01:08:59.328Z,99291.00
2023-05-01T01:09:59.407Z,99293.00
2023-05-01T01:10:59.326Z,99289.00
2023-05-01T01:11:59.331Z,99291.00
2023-05-01T01:12:59.357Z,99288.00
2023-05-01T01:13:59.381Z,99291.00
2023-05-01T01:14:59.400Z,99289.00
2023-05-01T01:15:59.417Z,99284.00
2023-05-01T01:16:59.503Z,99288.00
2023-05-01T01:17:59.514Z,99284.00
2023-05-01T01:18:59.426Z,99285.00
2023-05-01T01:19:59.459Z,99280.00
2023-05-01T01:20:59.474Z,99279.00
2023-05-01T01:21:59.500Z,99278.00
2023-05-01T01:22:59.529Z,99277.00
2023-05-01T01:23:59.518Z,99277.00
2023-05-01T01:24:59.520Z,99275.00
2023-05-01T01:25:59.529Z,99274.00
2023-05-01T01:26:59.554Z,99275.00
2023-05-01T01:27:59.566Z,99277.00
2023-05-01T01:28:59.589Z,99277.00
2023-05-01T01:29:59.610Z,99277.00
2023-05-01T01:30:59.668Z,99277.00
2023-05-01T01:31:59.647Z,99275.00
2023-05-01T01:33:00.196Z,99274.00
2023-05-01T01:33:59.683Z,99276.00
2023-05-01T01:34:59.700Z,99272.00
2023-05-01T01:35:59.692Z,99273.00
2023-05-01T01:36:59.692Z,99270.00
2023-05-01T01:37:59.730Z,99270.00
2023-05-01T01:38:59.731Z,99270.00
2023-05-01T01:39:59.741Z,99271.00
2023-05-01T01:40:59.761Z,99272.00
2023-05-01T01:41:59.773Z,99272.00
2023-05-01T01:42:59.817Z,99271.00
2023-05-01T01:43:59.796Z,99268.00
2023-05-01T01:44:59.802Z,99266.00
2023-05-01T01:45:59.845Z,99266.00
2023-05-01T01:46:59.822Z,99265.00
2023-05-01T01:47:59.922Z,99260.00
2023-05-01T01:48:59.889Z,99263.00
2023-05-01T01:49:59.845Z,99261.00
2023-05-01T01:50:59.951Z,99261.00
2023-05-01T01:51:59.864Z,99262.00
2023-05-01T01:52:59.888Z,99259.00
2023-05-01T01:53:59.928Z,99258.00
2023-05-01T01:54:59.884Z,99262.00
2023-05-01T01:56:01.769Z,99259.00
2023-05-01T01:56:59.923Z,99257.00
2023-05-01T01:57:59.946Z,99255.00
2023-05-01T01:58:59.943Z,99255.00
2023-05-01T01:59:59.953Z,99253.00
2023-05-01T02:00:59.961Z,99251.00
2023-05-01T02:02:00.027Z,99251.00
2023-05-01T02:03:00.082Z,99248.00
2023-05-01T02:04:00.238Z,99250.00
2023-05-01T02:05:00.368Z,99248.00
2023-05-01T02:06:00.068Z,99248.00
2023-05-01T02:07:00.068Z,99246.00
2023-05-01T02:08:00.117Z,99247.00
2023-05-01T02:09:00.138Z,99244.00
2023-05-01T02:10:00.157Z,99246.00
2023-05-01T02:11:02.065Z,99242.00
2023-05-01T02:12:00.151Z,99246.00
2023-05-01T02:13:00.156Z,99243.00
2023-05-01T02:14:00.182Z,99240.00
2023-05-01T02:15:00.202Z,99239.00
2023-05-01T02:16:00.234Z,99239.00
2023-05-01T02:17:00.215Z,99240.00
2023-05-01T02:18:00.263Z,99238.00
2023-05-01T02:19:00.229Z,99238.00
2023-05-01T02:20:00.268Z,99225.00
2023-05-01T02:21:00.351Z,99228.00
2023-05-01T02:22:00.232Z,99232.00
2023-05-01T02:23:00.246Z,99233.00
2023-05-01T02:24:00.265Z,99236.00
2023-05-01T02:25:00.294Z,99239.00
2023-05-01T02:26:00.265Z,99240.00
2023-05-01T02:27:00.276Z,99235.00
2023-05-01T02:28:00.278Z,99237.00
2023-05-01T02:29:00.296Z,99241.00
2023-05-01T02:30:00.339Z,99241.00
2023-05-01T02:31:00.360Z,99237.00
2023-05-01T02:32:00.590Z,99239.00
2023-05-01T02:33:00.450Z,99240.00
2023-05-01T02:34:00.377Z,99238.00
2023-05-01T02:35:00.616Z,99234.00
2023-05-01T02:36:00.387Z,99235.00
2023-05-01T02:37:00.405Z,99236.00
2023-05-01T02:38:00.405Z,99241.00
2023-05-01T02:39:00.432Z,99237.00
2023-05-01T02:40:00.467Z,99236.00
2023-05-01T02:41:00.437Z,99233.00
2023-05-01T02:42:00.455Z,99231.00
2023-05-01T02:43:00.473Z,99234.00
2023-05-01T02:44:00.463Z,99235.00
2023-05-01T02:45:00.500Z,99235.00
2023-05-01T02:46:00.508Z,99235.00
2023-05-01T02:47:00.519Z,99232.00
2023-05-01T02:48:00.573Z,99233.00
2023-05-01T02:49:00.517Z,99229.00
2023-05-01T02:50:00.540Z,99227.00
2023-05-01T02:51:00.517Z,99228.00
2023-05-01T02:52:00.536Z,99227.00
2023-05-01T02:53:00.668Z,99223.00
2023-05-01T02:54:00.541Z,99226.00
2023-05-01T02:55:00.575Z,99228.00
2023-05-01T02:56:00.562Z,99223.00
2023-05-01T02:57:00.576Z,99223.00
2023-05-01T02:58:00.615Z,99221.00
2023-05-01T02:59:00.601Z,99221.00
2023-05-01T03:00:00.632Z,99217.00
2023-05-01T03:01:00.618Z,99219.00
2023-05-01T03:02:00.621Z,99217.00
2023-05-01T03:03:00.693Z,99214.00
2023-05-01T03:04:00.742Z,99217.00
2023-05-01T03:05:00.665Z,99213.00
2023-05-01T03:06:00.709Z,99212.00
2023-05-01T03:07:00.707Z,99212.00
2023-05-01T03:08:00.711Z,99214.00
2023-05-01T03:09:00.756Z,99215.00
2023-05-01T03:10:00.779Z,99218.00
2023-05-01T03:11:00.798Z,99212.00
2023-05-01T03:12:00.820Z,99205.00
2023-05-01T03:13:00.821Z,99209.00
2023-05-01T03:14:00.824Z,99208.00
2023-05-01T03:15:00.846Z,99209.00
2023-05-01T03:16:00.882Z,99212.00
2023-05-01T03:17:00.873Z,99208.00
2023-05-01T03:18:00.898Z,99210.00
2023-05-01T03:19:00.872Z,99210.00
2023-05-01T03:20:00.878Z,99209.00
2023-05-01T03:21:00.901Z,99208.00
2023-05-01T03:22:00.907Z,99203.00
2023-05-01T03:23:00.915Z,99210.00
2023-05-01T03:24:00.933Z,99207.00
2023-05-01T03:25:00.978Z,99207.00
2023-05-01T03:26:00.974Z,99205.00
2023-05-01T03:27:00.987Z,99205.00
2023-05-01T03:28:01.030Z,99208.00
2023-05-01T03:29:01.006Z,99210.00
2023-05-01T03:30:01.008Z,99202.00
2023-05-01T03:31:01.057Z,99206.00
2023-05-01T03:32:01.079Z,99205.00
2023-05-01T03:33:01.186Z,99205.00
2023-05-01T03:34:01.087Z,99204.00
2023-05-01T03:35:01.188Z,99209.00
2023-05-01T03:36:01.131Z,99209.00
2023-05-01T03:37:01.163Z,99209.00
2023-05-01T03:38:01.167Z,99207.00
2023-05-01T03:39:01.195Z,99207.00
2023-05-01T03:40:01.225Z,99213.00
2023-05-01T03:41:01.263Z,99212.00
2023-05-01T03:42:01.234Z,99210.00
2023-05-01T03:43:01.245Z,99210.00
2023-05-01T03:44:01.241Z,99213.00
2023-05-01T03:45:01.276Z,99213.00
2023-05-01T03:46:01.320Z,99214.00
2023-05-01T03:47:01.317Z,99215.00
2023-05-01T03:48:01.381Z,99216.00
2023-05-01T03:49:01.323Z,99215.00
2023-05-01T03:50:01.324Z,99215.00
2023-05-01T03:51:01.358Z,99215.00
2023-05-01T03:52:01.386Z,99216.00
2023-05-01T03:53:01.394Z,99215.00
2023-05-01T03:54:01.421Z,99213.00
2023-05-01T03:55:01.408Z,99213.00
2023-05-01T03:56:01.411Z,99210.00
2023-05-01T03:57:01.446Z,99208.00
2023-05-01T03:58:01.413Z,99212.00
2023-05-01T03:59:01.432Z,99208.00
2023-05-01T04:00:01.447Z,99212.00
2023-05-01T04:01:01.468Z,99212.00
2023-05-01T04:02:01.507Z,99211.00
2023-05-01T04:03:01.816Z,99214.00
2023-05-01T04:04:01.859Z,99211.00
2023-05-01T04:05:01.520Z,99212.00
2023-05-01T04:06:01.620Z,99215.00
2023-05-01T04:07:01.583Z,99214.00
2023-05-01T04:08:01.611Z,99209.00
2023-05-01T04:09:01.591Z,99209.00
2023-05-01T04:10:01.614Z,99209.00
2023-05-01T04:11:01.613Z,99205.00
2023-05-01T04:12:01.626Z,99206.00
2023-05-01T04:13:01.689Z,99207.00
2023-05-01T04:14:01.651Z,99205.00
2023-05-01T04:15:01.694Z,99204.00
2023-05-01T04:16:01.725Z,99200.00
2023-05-01T04:17:01.694Z,99201.00
2023-05-01T04:18:01.904Z,99201.00
2023-05-01T04:19:01.736Z,99199.00
2023-05-01T04:20:01.746Z,99200.00
2023-05-01T04:21:01.771Z,99200.00
2023-05-01T04:22:01.773Z,99199.00
2023-05-01T04:23:01.825Z,99198.00
2023-05-01T04:24:01.789Z,99199.00
2023-05-01T04:25:01.814Z,99197.00
2023-05-01T04:26:01.808Z,99202.00
2023-05-01T04:27:01.814Z,99198.00
2023-05-01T04:28:01.880Z,99198.00
2023-05-01T04:29:01.887Z,99202.00
2023-05-01T04:30:01.864Z,99197.00
2023-05-01T04:31:01.945Z,99197.00
2023-05-01T04:32:02.016Z,99193.00
2023-05-01T04:33:02.005Z,99197.00
2023-05-01T04:34:01.893Z,99199.00
2023-05-01T04:35:01.910Z,99196.00
2023-05-01T04:36:01.920Z,99194.00
2023-05-01T04:37:01.941Z,99194.00
2023-05-01T04:38:01.951Z,99193.00
2023-05-01T04:39:01.976Z,99196.00
2023-05-01T04:40:02.013Z,99194.00
2023-05-01T04:41:01.992Z,99196.00
2023-05-01T04:42:02.011Z,99195.00
2023-05-01T04:43:02.017Z,99196.00
2023-05-01T04:44:02.043Z,99198.00
2023-05-01T04:45:02.094Z,99198.00
2023-05-01T04:46:02.056Z,99203.00
2023-05-01T04:47:02.082Z,99197.00
2023-05-01T04:48:02.119Z,99197.00
2023-05-01T04:49:02.058Z,99202.00
2023-05-01T04:50:02.085Z,99198.00
2023-05-01T04:51:02.090Z,99201.00
2023-05-01T04:52:02.110Z,99196.00
2023-05-01T04:53:02.130Z,99195.00
2023-05-01T04:54:02.099Z,99197.00
2023-05-01T04:55:02.106Z,99199.00
2023-05-01T04:56:02.129Z,99198.00
2023-05-01T04:57:02.141Z,99194.00
2023-05-01T04:58:02.151Z,99196.00
2023-05-01T04:59:02.200Z,99197.00
2023-05-01T05:00:02.164Z,99195.00
2023-05-01T05:02:28.230Z,99199.00
2023-05-01T05:03:28.192Z,99197.00
2023-05-01T05:04:28.117Z,99201.00
2023-05-01T05:05:28.125Z,99200.00
2023-05-01T05:06:28.255Z,99197.00
2023-05-01T05:07:29.693Z,99199.00
2023-05-01T05:08:28.157Z,99202.00
2023-05-01T05:09:28.176Z,99195.00
2023-05-01T05:10:28.193Z,99201.00
2023-05-01T05:11:28.218Z,99199.00
2023-05-01T05:12:28.236Z,99197.00
2023-05-01T05:13:28.282Z,99200.00
2023-05-01T05:14:28.250Z,99198.00
2023-05-01T05:15:28.257Z,99197.00
2023-05-01T05:16:28.322Z,99197.00
2023-05-01T05:17:28.363Z,99197.00
2023-05-01T05:18:28.335Z,99198.00
2023-05-01T05:19:28.346Z,99198.00
2023-05-01T05:20:28.378Z,99198.00
2023-05-01T05:21:28.409Z,99195.00
2023-05-01T05:22:28.442Z,99194.00
2023-05-01T05:23:28.449Z,99196.00
2023-05-01T05:24:28.475Z,99196.00
2023-05-01T05:25:28.514Z,99195.00
2023-05-01T05:26:28.530Z,99195.00
2023-05-01T05:27:28.570Z,99196.00
2023-05-01T05:28:28.553Z,99197.00
2023-05-01T05:29:28.579Z,99197.00
2023-05-01T05:30:28.619Z,99196.00
2023-05-01T05:31:28.671Z,99203.00
2023-05-01T05:32:28.727Z,99198.00
2023-05-01T05:33:28.656Z,99200.00
2023-05-01T05:34:28.716Z,99196.00
2023-05-01T05:35:28.691Z,99201.00
2023-05-01T05:36:28.762Z,99195.00
2023-05-01T05:37:28.691Z,99200.00
2023-05-01T05:38:28.719Z,99198.00
2023-05-01T05:39:28.727Z,99199.00
2023-05-01T05:40:28.762Z,99192.00
2023-05-01T05:41:28.992Z,99194.00
2023-05-01T05:42:28.780Z,99194.00
2023-05-01T05:43:28.819Z,99190.00
2023-05-01T05:44:28.844Z,99189.00
2023-05-01T05:45:28.848Z,99192.00
2023-05-01T05:46:28.911Z,99184.00
2023-05-01T05:47:28.901Z,99185.00
2023-05-01T05:48:28.910Z,99187.00
2023-05-01T05:49:28.897Z,99187.00
2023-05-01T05:50:28.943Z,99188.00
2023-05-01T05:51:28.944Z,99188.00
2023-05-01T05:52:29.003Z,99190.00
2023-05-01T05:53:28.938Z,99190.00
2023-05-01T05:54:28.956Z,99184.00
2023-05-01T05:55:28.957Z,99185.00
2023-05-01T05:56:28.959Z,99181.00
2023-05-01T05:57:28.975Z,99179.00
2023-05-01T05:58:29.008Z,99176.00
2023-05-01T05:59:29.020Z,99178.00
2023-05-01T06:00:29.053Z,99180.00
2023-05-01T06:01:29.077Z,99179.00
2023-05-01T06:02:29.217Z,99178.00
2023-05-01T06:03:29.170Z,99176.00
2023-05-01T06:04:29.107Z,99181.00
2023-05-01T06:05:29.179Z,99177.00
2023-05-01T06:06:29.237Z,99174.00
2023-05-01T06:07:29.184Z,99178.00
2023-05-01T06:08:29.212Z,99180.00
2023-05-01T06:09:29.238Z,99178.00
2023-05-01T06:10:29.272Z,99180.00
2023-05-01T06:11:29.285Z,99182.00
2023-05-01T06:12:29.256Z,99179.00
2023-05-01T06:13:29.269Z,99177.00
2023-05-01T06:14:29.298Z,99177.00
2023-05-01T06:15:29.394Z,99174.00
2023-05-01T06:16:29.500Z,99174.00
2023-05-01T06:17:29.385Z,99175.00
2023-05-01T06:18:29.366Z,99177.00
2023-05-01T06:19:29.387Z,99174.00
2023-05-01T06:20:29.472Z,99171.00
2023-05-01T06:21:29.394Z,99171.00
2023-05-01T06:22:29.434Z,99169.00
2023-05-01T06:23:29.449Z,99168.00
2023-05-01T06:24:29.428Z,99164.00
2023-05-01T06:25:29.472Z,99167.00
2023-05-01T06:26:29.448Z,99165.00
2023-05-01T06:27:29.472Z,99167.00
2023-05-01T06:28:29.504Z,99164.00
2023-05-01T06:29:29.542Z,99158.00
2023-05-01T06:30:29.555Z,99158.00
2023-05-01T06:31:29.647Z,99159.00
2023-05-01T06:32:29.651Z,99158.00
2023-05-01T06:33:29.577Z,99160.00
2023-05-01T06:34:29.603Z,99160.00
2023-05-01T06:35:29.630Z,99162.00
2023-05-01T06:36:29.670Z,99161.00
2023-05-01T06:37:29.648Z,99155.00
2023-05-01T06:38:29.709Z,99157.00
2023-05-01T06:39:29.674Z,99153.00
2023-05-01T06:40:29.710Z,99153.00
2023-05-01T06:41:29.726Z,99152.00
2023-05-01T06:42:29.745Z,99150.00
2023-05-01T06:43:29.770Z,99147.00
2023-05-01T06:44:31.514Z,99147.00
2023-05-01T06:45:29.792Z,99153.00
2023-05-01T06:46:29.808Z,99150.00
2023-05-01T06:47:29.829Z,99152.00
2023-05-01T06:48:29.808Z,99154.00
2023-05-01T06:49:29.824Z,99153.00
2023-05-01T06:50:29.813Z,99152.00
2023-05-01T06:51:29.821Z,99150.00
2023-05-01T06:52:29.847Z,99149.00
2023-05-01T06:53:29.871Z,99156.00
2023-05-01T06:54:29.869Z,99147.00
2023-05-01T06:55:29.869Z,99155.00
2023-05-01T06:56:29.901Z,99153.00
2023-05-01T06:57:29.914Z,99154.00
2023-05-01T06:58:29.929Z,99158.00
2023-05-01T06:59:29.922Z,99159.00
2023-05-01T07:00:29.999Z,99158.00
2023-05-01T07:01:31.120Z,99154.00
2023-05-01T07:02:29.982Z,99155.00
2023-05-01T07:03:30.013Z,99155.00
2023-05-01T07:04:29.978Z,99155.00
2023-05-01T07:05:29.971Z,99157.00
2023-05-01T07:06:30.042Z,99160.00
2023-05-01T07:07:29.950Z,99160.00
2023-05-01T07:08:29.976Z,99160.00
2023-05-01T07:09:29.984Z,99158.00
2023-05-01T07:10:30.057Z,99157.00
2023-05-01T07:11:30.018Z,99154.00
2023-05-01T07:12:30.054Z,99155.00
2023-05-01T07:13:30.060Z,99152.00
2023-05-01T07:14:30.090Z,99151.00
2023-05-01T07:15:30.102Z,99150.00
2023-05-01T07:16:30.176Z,99152.00
2023-05-01T07:17:30.151Z,99151.00
2023-05-01T07:18:30.132Z,99148.00
2023-05-01T07:19:30.170Z,99144.00
2023-05-01T07:20:30.165Z,99143.00
2023-05-01T07:21:30.162Z,99141.00
2023-05-01T07:22:30.224Z,99138.00
2023-05-01T07:23:30.200Z,99136.00
2023-05-01T07:24:30.237Z,99131.00
2023-05-01T07:25:30.255Z,99127.00
2023-05-01T07:26:30.292Z,99124.00
2023-05-01T07:27:30.298Z,99121.00
2023-05-01T07:28:30.325Z,99122.00
2023-05-01T07:29:30.341Z,99121.00
2023-05-01T07:30:30.364Z,99116.00
2023-05-01T07:31:30.402Z,99121.00
2023-05-01T07:32:30.402Z,99118.00
2023-05-01T07:33:30.412Z,99117.00
2023-05-01T07:34:30.429Z,99119.00
2023-05-01T07:35:30.416Z,99114.00
2023-05-01T07:36:30.423Z,99113.00
2023-05-01T07:37:30.668Z,99115.00
2023-05-01T07:38:30.444Z,99113.00
2023-05-01T07:39:30.469Z,99120.00
2023-05-01T07:40:30.478Z,99114.00
2023-05-01T07:41:30.492Z,99117.00
2023-05-01T07:42:30.560Z,99113.00
2023-05-01T07:43:30.518Z,99109.00
2023-05-01T07:44:30.539Z,99107.00
2023-05-01T07:45:30.579Z,99109.00
2023-05-01T07:46:30.680Z,99109.00
2023-05-01T07:47:30.649Z,99108.00
2023-05-01T07:48:30.588Z,99108.00
2023-05-01T07:49:30.613Z,99107.00
2023-05-01T07:50:30.590Z,99110.00
2023-05-01T07:51:30.601Z,99112.00
2023-05-01T07:52:30.607Z,99109.00
2023-05-01T07:53:30.661Z,99110.00
2023-05-01T07:54:30.671Z,99111.00
2023-05-01T07:55:30.683Z,99114.00
2023-05-01T07:56:30.696Z,99106.00
2023-05-01T07:57:30.739Z,99113.00
2023-05-01T07:58:30.791Z,99111.00
2023-05-01T07:59:30.755Z,99106.00
2023-05-01T08:00:31.016Z,99108.00
2023-05-01T08:01:30.793Z,99102.00
2023-05-01T08:02:31.106Z,99105.00
2023-05-01T08:03:31.036Z,99105.00
2023-05-01T08:04:30.885Z,99104.00
2023-05-01T08:05:30.841Z,99095.00
2023-05-01T08:06:30.879Z,99098.00
2023-05-01T08:07:30.849Z,99096.00
2023-05-01T08:08:30.882Z,99097.00
2023-05-01T08:09:30.895Z,99096.00
2023-05-01T08:10:30.941Z,99097.00
2023-05-01T08:11:30.955Z,99087.00
2023-05-01T08:12:30.992Z,99094.00
2023-05-01T08:13:31.012Z,99095.00
2023-05-01T08:14:31.221Z,99091.00
2023-05-01T08:15:31.058Z,99089.00
2023-05-01T08:16:31.080Z,99093.00
2023-05-01T08:17:31.132Z,99095.00
2023-05-01T08:18:31.071Z,99095.00
2023-05-01T08:19:31.103Z,99092.00
2023-05-01T08:20:31.136Z,99090.00
2023-05-01T08:21:31.125Z,99090.00
2023-05-01T08:22:31.133Z,99091.00
2023-05-01T08:23:31.153Z,99094.00
2023-05-01T08:24:31.156Z,99089.00
2023-05-01T08:25:31.186Z,99083.00
2023-05-01T08:26:31.168Z,99089.00
2023-05-01T08:27:31.206Z,99089.00
2023-05-01T08:28:31.221Z,99091.00
2023-05-01T08:29:31.202Z,99093.00
2023-05-01T08:30:31.242Z,99091.00
2023-05-01T08:31:31.314Z,99091.00
2023-05-01T08:32:32.371Z,99083.00
2023-05-01T08:33:31.272Z,99090.00
2023-05-01T08:34:31.276Z,99088.00
2023-05-01T08:35:31.288Z,99087.00
2023-05-01T08:36:31.299Z,99090.00
2023-05-01T08:37:31.363Z,99087.00
2023-05-01T08:38:31.345Z,99092.00
2023-05-01T08:39:31.348Z,99085.00
2023-05-01T08:40:31.362Z,99087.00
2023-05-01T08:41:31.395Z,99094.00
2023-05-01T08:42:32.445Z,99095.00
2023-05-01T08:43:31.421Z,99093.00
2023-05-01T08:44:31.405Z,99097.00
2023-05-01T08:45:31.424Z,99096.00
2023-05-01T08:46:31.626Z,99093.00
2023-05-01T08:47:31.485Z,99098.00
2023-05-01T08:48:31.459Z,99100.00
2023-05-01T08:49:31.481Z,99100.00
2023-05-01T08:50:31.504Z,99102.00
2023-05-01T08:51:31.518Z,99105.00
2023-05-01T08:52:31.540Z,99098.00
2023-05-01T08:53:31.564Z,99104.00
2023-05-01T08:54:31.585Z,99096.00
2023-05-01T08:55:31.560Z,99104.00
2023-05-01T08:56:31.576Z,99103.00
2023-05-01T08:57:31.608Z,99092.00
2023-05-01T08:58:31.643Z,99099.00
2023-05-01T08:59:31.660Z,99096.00
2023-05-01T09:00:31.686Z,99099.00
2023-05-01T09:01:31.721Z,99095.00
2023-05-01T09:02:31.804Z,99099.00
2023-05-01T09:03:31.763Z,99097.00
2023-05-01T09:04:31.747Z,99095.00
2023-05-01T09:05:31.772Z,99100.00
2023-05-01T09:06:31.743Z,99096.00
2023-05-01T09:07:31.731Z,99095.00
2023-05-01T09:08:31.742Z,99090.00
2023-05-01T09:09:31.784Z,99091.00
2023-05-01T09:10:33.034Z,99096.00
2023-05-01T09:11:31.770Z,99091.00
2023-05-01T09:12:31.801Z,99090.00
2023-05-01T09:13:31.816Z,99094.00
2023-05-01T09:14:31.842Z,99083.00
2023-05-01T09:15:31.826Z,99087.00
2023-05-01T09:16:31.897Z,99092.00
2023-05-01T09:17:31.870Z,99091.00
2023-05-01T09:18:31.907Z,99092.00
2023-05-01T09:19:31.885Z,99092.00
2023-05-01T09:20:31.885Z,99094.00
2023-05-01T09:21:31.857Z,99094.00
2023-05-01T09:22:31.890Z,99095.00
2023-05-01T09:23:31.973Z,99092.00
2023-05-01T09:24:31.936Z,99089.00
2023-05-01T09:25:31.935Z,99083.00
2023-05-01T09:26:31.951Z,99090.00
2023-05-01T09:27:31.956Z,99088.00
2023-05-01T09:28:31.986Z,99087.00
2023-05-01T09:29:32.005Z,99087.00
2023-05-01T09:30:32.042Z,99090.00
2023-05-01T09:31:32.072Z,99089.00
2023-05-01T09:32:32.060Z,99088.00
2023-05-01T09:33:32.087Z,99087.00
2023-05-01T09:34:32.130Z,99086.00
2023-05-01T09:35:32.087Z,99088.00
2023-05-01T09:36:32.116Z,99088.00
2023-05-01T09:37:32.164Z,99086.00
2023-05-01T09:38:32.146Z,99086.00
2023-05-01T09:39:32.156Z,99091.00
2023-05-01T09:40:32.145Z,99088.00
2023-05-01T09:41:32.170Z,99087.00
2023-05-01T09:42:32.169Z,99090.00
2023-05-01T09:43:32.152Z,99089.00
2023-05-01T09:44:32.165Z,99089.00
2023-05-01T09:45:32.193Z,99089.00
2023-05-01T09:46:32.275Z,99085.00
2023-05-01T09:47:32.283Z,99086.00
2023-05-01T09:48:34.998Z,99082.00
2023-05-01T09:49:32.268Z,99077.00
2023-05-01T09:50:32.380Z,99075.00
2023-05-01T09:51:32.301Z,99076.00
2023-05-01T09:52:32.325Z,99076.00
2023-05-01T09:53:32.320Z,99074.00
2023-05-01T09:54:32.344Z,99074.00
2023-05-01T09:55:32.360Z,99074.00
2023-05-01T09:56:32.424Z,99074.00
2023-05-01T09:57:32.391Z,99074.00
2023-05-01T09:58:32.378Z,99074.00
2023-05-01T09:59:32.401Z,99076.00
2023-05-01T10:00:32.427Z,99077.00
2023-05-01T10:01:32.689Z,99078.00
2023-05-01T10:02:32.607Z,99079.00
2023-05-01T10:03:32.566Z,99083.00
2023-05-01T10:04:32.467Z,99082.00
2023-05-01T10:05:32.503Z,99083.00
2023-05-01T10:06:32.693Z,99082.00
2023-05-01T10:07:32.516Z,99080.00
2023-05-01T10:08:32.546Z,99082.00
2023-05-01T10:09:32.579Z,99081.00
2023-05-01T10:10:32.589Z,99082.00
2023-05-01T10:11:32.612Z,99082.00
2023-05-01T10:12:32.592Z,99077.00
2023-05-01T10:13:32.618Z,99080.00
2023-05-01T10:14:32.625Z,99082.00
2023-05-01T10:15:32.642Z,99081.00
2023-05-01T10:16:32.673Z,99085.00
2023-05-01T10:17:32.679Z,99084.00
2023-05-01T10:18:32.665Z,99085.00
2023-05-01T10:19:32.718Z,99085.00
2023-05-01T10:20:32.740Z,99087.00
2023-05-01T10:21:32.705Z,99086.00
2023-05-01T10:22:32.704Z,99086.00
2023-05-01T10:23:32.681Z,99087.00
2023-05-01T10:24:32.712Z,99086.00
2023-05-01T10:25:32.727Z,99082.00
2023-05-01T10:26:32.745Z,99079.00
2023-05-01T10:27:32.869Z,99086.00
2023-05-01T10:28:32.795Z,99088.00
2023-05-01T10:29:32.808Z,99088.00
2023-05-01T10:30:32.824Z,99085.00
2023-05-01T10:31:33.172Z,99082.00
2023-05-01T10:32:32.973Z,99085.00
2023-05-01T10:33:32.920Z,99085.00
2023-05-01T10:34:32.884Z,99088.00
2023-05-01T10:35:32.898Z,99087.00
2023-05-01T10:36:32.937Z,99087.00
2023-05-01T10:37:32.951Z,99090.00
2023-05-01T10:38:32.959Z,99090.00
2023-05-01T10:39:32.972Z,99093.00
2023-05-01T10:40:33.030Z,99090.00
2023-05-01T10:41:32.988Z,99094.00
2023-05-01T10:42:32.999Z,99093.00
2023-05-01T10:43:33.018Z,99095.00
2023-05-01T10:44:33.066Z,99091.00
2023-05-01T10:45:34.025Z,99086.00
2023-05-01T10:46:33.194Z,99091.00
2023-05-01T10:47:33.124Z,99093.00
2023-05-01T10:48:33.092Z,99090.00
2023-05-01T10:49:33.373Z,99096.00
2023-05-01T10:50:33.108Z,99089.00
2023-05-01T10:51:33.139Z,99088.00
2023-05-01T10:52:33.166Z,99090.00
2023-05-01T10:53:33.193Z,99090.00
2023-05-01T10:54:33.371Z,99090.00
2023-05-01T10:55:33.251Z,99090.00
2023-05-01T10:56:33.282Z,99085.00
2023-05-01T10:57:33.308Z,99092.00
2023-05-01T10:58:33.332Z,99089.00
2023-05-01T10:59:33.377Z,99086.00
2023-05-01T11:00:33.350Z,99090.00
2023-05-01T11:01:33.487Z,99095.00
2023-05-01T11:02:33.436Z,99091.00
2023-05-01T11:03:33.397Z,99094.00
2023-05-01T11:04:33.421Z,99097.00
2023-05-01T11:05:38.600Z,99096.00
2023-05-01T11:06:33.617Z,99094.00
2023-05-01T11:07:33.455Z,99096.00
2023-05-01T11:08:33.487Z,99092.00
2023-05-01T11:09:33.503Z,99097.00
2023-05-01T11:10:33.549Z,99096.00
2023-05-01T11:11:33.560Z,99097.00
2023-05-01T11:12:33.544Z,99094.00
2023-05-01T11:13:33.570Z,99094.00
2023-05-01T11:14:33.599Z,99093.00
2023-05-01T11:15:33.618Z,99095.00
2023-05-01T11:16:33.690Z,99094.00
2023-05-01T11:17:33.664Z,99089.00
2023-05-01T11:18:33.637Z,99084.00
2023-05-01T11:19:33.653Z,99086.00
2023-05-01T11:20:33.664Z,99083.00
2023-05-01T11:21:33.680Z,99080.00
2023-05-01T11:22:33.700Z,99085.00
2023-05-01T11:23:33.705Z,99079.00
2023-05-01T11:24:33.747Z,99082.00
2023-05-01T11:25:33.859Z,99073.00
2023-05-01T11:26:33.805Z,99074.00
2023-05-01T11:27:33.781Z,99079.00
2023-05-01T11:28:33.774Z,99082.00
2023-05-01T11:29:33.802Z,99082.00
2023-05-01T11:30:33.811Z,99080.00
2023-05-01T11:31:33.883Z,99080.00
2023-05-01T11:32:33.875Z,99082.00
2023-05-01T11:33:33.838Z,99076.00
2023-05-01T11:34:33.866Z,99085.00
2023-05-01T11:35:33.874Z,99081.00
2023-05-01T11:36:33.913Z,99083.00
2023-05-01T11:37:33.933Z,99084.00
2023-05-01T11:38:33.961Z,99083.00
2023-05-01T11:39:34.018Z,99086.00
2023-05-01T11:40:34.021Z,99081.00
2023-05-01T11:41:34.036Z,99082.00
2023-05-01T11:42:34.105Z,99078.00
2023-05-01T11:43:34.049Z,99080.00
2023-05-01T11:44:34.288Z,99078.00
2023-05-01T11:45:34.179Z,99084.00
2023-05-01T11:46:34.106Z,99079.00